createdAt,value
2018-03-28T00:00:06.044Z,93.67
2018-03-28T00:02:35.283Z,93.80
2018-03-28T00:05:04.563Z,94.01
2018-03-28T00:07:33.558Z,93.28
2018-03-28T00:10:03.576Z,93.15
2018-03-28T00:12:32.657Z,93.59
2018-03-28T00:15:01.866Z,93.36
2018-03-28T00:17:33.523Z,93.12
2018-03-28T00:20:02.621Z,92.82
2018-03-28T00:22:31.962Z,93.34
2018-03-28T00:25:01.981Z,93.49
2018-03-28T00:27:31.146Z,93.69
2018-03-28T00:30:01.112Z,93.61
2018-03-28T00:32:30.698Z,93.75
2018-03-28T00:35:00.722Z,93.87
2018-03-28T00:37:29.775Z,93.58
2018-03-28T00:40:00.846Z,93.38
2018-03-28T00:42:30.535Z,93.29
2018-03-28T00:44:59.551Z,93.17
2018-03-28T00:47:30.736Z,93.06
2018-03-28T00:49:59.950Z,93.15
2018-03-28T00:52:28.860Z,93.08
2018-03-28T01:00:10.890Z,93.87
2018-03-28T01:02:40.051Z,94.00
2018-03-28T01:05:10.928Z,93.84
2018-03-28T01:07:40.150Z,93.80
2018-03-28T01:10:09.429Z,94.02
2018-03-28T01:12:41.293Z,94.82
2018-03-28T01:15:11.028Z,94.82
2018-03-28T01:17:41.054Z,94.99
2018-03-28T01:20:10.245Z,94.86
2018-03-28T01:22:40.494Z,95.00
2018-03-28T01:25:12.503Z,95.54
2018-03-28T01:27:43.194Z,96.21
2018-03-28T01:30:12.953Z,97.17
2018-03-28T01:32:42.834Z,97.41
2018-03-28T01:35:11.887Z,98.02
2018-03-28T01:37:41.185Z,99.05
2018-03-28T01:40:10.268Z,99.58
2018-03-28T01:42:39.540Z,100.00
2018-03-28T01:45:10.432Z,100.00
2018-03-28T01:47:40.926Z,100.00
2018-03-28T01:50:10.865Z,100.00
2018-03-28T01:52:39.947Z,100.00
2018-03-28T01:55:14.171Z,100.00
2018-03-28T01:57:43.957Z,100.00
2018-03-28T02:00:13.696Z,100.00
2018-03-28T02:02:45.764Z,100.00
2018-03-28T02:05:15.267Z,100.00
2018-03-28T02:07:44.266Z,100.00
2018-03-28T02:10:14.284Z,99.13
2018-03-28T02:12:44.409Z,98.85
2018-03-28T02:15:13.334Z,98.74
2018-03-28T02:20:17.933Z,99.20
2018-03-28T02:22:49.560Z,99.03
2018-03-28T02:25:18.516Z,98.58
2018-03-28T02:27:48.172Z,98.29
2018-03-28T02:30:17.119Z,97.73
2018-03-28T02:32:47.863Z,97.21
2018-03-28T02:35:16.966Z,96.42
2018-03-28T02:37:46.195Z,96.48
2018-03-28T02:40:16.284Z,96.50
2018-03-28T02:42:45.288Z,96.91
2018-03-28T02:45:14.549Z,97.46
2018-03-28T02:50:20.588Z,97.51
2018-03-28T02:52:50.259Z,97.25
2018-03-28T02:55:20.850Z,97.07
2018-03-28T02:57:54.102Z,96.49
2018-03-28T03:00:23.134Z,95.81
2018-03-28T03:02:52.238Z,95.47
2018-03-28T03:07:55.236Z,95.70
2018-03-28T03:10:24.226Z,95.61
2018-03-28T03:12:53.412Z,95.42
2018-03-28T03:15:22.560Z,95.40
2018-03-28T03:17:51.783Z,95.27
2018-03-28T03:20:21.017Z,95.01
2018-03-28T03:22:50.606Z,94.94
2018-03-28T03:25:21.162Z,94.62
2018-03-28T03:27:50.086Z,94.86
2018-03-28T03:30:19.184Z,95.48
2018-03-28T03:32:49.485Z,95.93
2018-03-28T03:37:52.784Z,96.03
2018-03-28T03:40:21.984Z,96.05
2018-03-28T03:45:25.104Z,96.23
2018-03-28T03:47:54.730Z,96.13
2018-03-28T03:50:23.880Z,95.12
2018-03-28T03:52:53.021Z,94.60
2018-03-28T03:55:22.089Z,94.57
2018-03-28T03:57:52.073Z,94.32
2018-03-28T04:00:21.302Z,94.49
2018-03-28T04:02:51.669Z,94.16
2018-03-28T04:05:20.682Z,93.84
2018-03-28T04:07:49.819Z,93.76
2018-03-28T04:10:26.501Z,93.61
2018-03-28T04:12:56.248Z,93.56
2018-03-28T04:15:25.914Z,93.63
2018-03-28T04:17:54.947Z,93.83
2018-03-28T04:20:24.008Z,94.34
2018-03-28T04:22:53.099Z,94.45
2018-03-28T04:25:22.999Z,94.31
2018-03-28T04:27:52.222Z,94.02
2018-03-28T04:30:21.306Z,93.71
2018-03-28T04:32:50.902Z,93.70
2018-03-28T04:35:22.846Z,93.90
2018-03-28T04:37:54.297Z,94.01
2018-03-28T04:40:25.173Z,94.44
2018-03-28T04:42:54.165Z,94.87
2018-03-28T04:47:59.012Z,95.51
2018-03-28T04:50:28.723Z,95.37
2018-03-28T04:52:58.721Z,96.44
2018-03-28T04:55:28.691Z,96.40
2018-03-28T04:57:57.887Z,96.15
2018-03-28T05:00:26.882Z,96.73
2018-03-28T05:02:55.865Z,97.26
2018-03-28T05:05:25.075Z,97.64
2018-03-28T05:13:11.996Z,96.90
2018-03-28T05:15:41.997Z,96.03
2018-03-28T05:18:13.659Z,95.42
2018-03-28T05:20:42.667Z,95.84
2018-03-28T05:23:12.688Z,95.19
2018-03-28T05:25:42.347Z,94.06
2018-03-28T05:28:13.058Z,93.51
2018-03-28T05:30:42.196Z,92.85
2018-03-28T05:33:11.333Z,92.33
2018-03-28T05:35:40.452Z,90.94
2018-03-28T05:38:10.100Z,89.86
2018-03-28T05:40:40.042Z,89.56
2018-03-28T05:43:09.486Z,88.43
2018-03-28T05:45:39.286Z,87.95
2018-03-28T05:48:08.417Z,87.55
2018-03-28T05:50:37.455Z,87.51
2018-03-28T05:53:06.547Z,87.44
2018-03-28T05:55:38.185Z,87.59
2018-03-28T05:58:07.196Z,87.60
2018-03-28T06:00:36.391Z,86.99
2018-03-28T06:03:05.337Z,87.50
2018-03-28T06:05:34.282Z,88.68
2018-03-28T06:08:04.100Z,88.59
2018-03-28T06:10:34.960Z,89.04
2018-03-28T06:13:04.066Z,88.28
2018-03-28T06:15:33.090Z,88.12
2018-03-28T06:18:02.166Z,88.97
2018-03-28T06:20:31.216Z,88.85
2018-03-28T06:23:00.208Z,87.59
2018-03-28T06:25:31.189Z,87.87
2018-03-28T06:28:00.080Z,86.56
2018-03-28T06:30:31.049Z,84.60
2018-03-28T06:33:00.190Z,83.65
2018-03-28T06:35:29.166Z,83.12
2018-03-28T06:37:58.165Z,83.55
2018-03-28T06:40:28.013Z,83.56
2018-03-28T06:42:57.508Z,82.81
2018-03-28T06:45:26.405Z,83.03
2018-03-28T06:47:55.608Z,82.42
2018-03-28T06:50:24.597Z,85.17
2018-03-28T06:52:54.823Z,84.04
2018-03-28T06:55:24.498Z,84.67
2018-03-28T06:57:53.941Z,85.65
2018-03-28T07:00:23.135Z,85.09
2018-03-28T07:02:52.357Z,84.10
2018-03-28T07:05:21.332Z,83.22
2018-03-28T07:07:51.368Z,82.31
2018-03-28T07:10:20.446Z,81.79
2018-03-28T07:12:49.522Z,80.19
2018-03-28T07:15:18.534Z,81.47
2018-03-28T07:17:47.664Z,83.31
2018-03-28T07:20:16.657Z,82.49
2018-03-28T07:22:45.716Z,82.43
2018-03-28T07:25:16.429Z,83.44
2018-03-28T07:27:45.747Z,84.94
2018-03-28T07:30:14.795Z,84.78
2018-03-28T07:32:46.348Z,83.43
2018-03-28T07:35:16.666Z,81.68
2018-03-28T07:37:45.714Z,83.57
2018-03-28T07:42:48.869Z,83.66
2018-03-28T07:45:17.792Z,84.12
2018-03-28T07:47:47.615Z,84.08
2018-03-28T07:50:16.674Z,82.72
2018-03-28T07:52:45.767Z,81.99
2018-03-28T07:55:15.661Z,81.71
2018-03-28T07:57:44.675Z,80.47
2018-03-28T08:00:13.950Z,80.07
2018-03-28T08:02:43.079Z,78.50
2018-03-28T08:05:12.294Z,78.53
2018-03-28T08:07:41.262Z,79.31
2018-03-28T08:10:13.237Z,80.36
2018-03-28T08:12:43.813Z,80.59
2018-03-28T08:15:12.953Z,80.40
2018-03-28T08:17:42.874Z,80.73
2018-03-28T08:20:11.980Z,81.78
2018-03-28T08:22:40.999Z,83.37
2018-03-28T08:25:10.781Z,83.63
2018-03-28T08:27:40.531Z,83.46
2018-03-28T08:30:09.733Z,82.07
2018-03-28T08:32:38.833Z,80.83
2018-03-28T08:35:08.018Z,80.21
2018-03-28T08:37:36.944Z,80.51
2018-03-28T08:40:07.499Z,79.86
2018-03-28T08:42:36.436Z,80.71
2018-03-28T08:45:05.535Z,81.52
2018-03-28T08:47:35.512Z,80.53
2018-03-28T08:50:04.442Z,80.53
2018-03-28T08:52:33.889Z,79.85
2018-03-28T08:57:38.387Z,78.22
2018-03-28T09:00:07.688Z,78.04
2018-03-28T09:02:36.681Z,77.46
2018-03-28T09:05:08.846Z,77.60
2018-03-28T09:07:38.565Z,77.52
2018-03-28T09:10:07.450Z,76.81
2018-03-28T09:12:38.302Z,77.07
2018-03-28T09:15:08.095Z,76.64
2018-03-28T09:17:37.205Z,76.90
2018-03-28T09:20:08.790Z,77.20
2018-03-28T09:22:38.690Z,76.08
2018-03-28T09:25:07.587Z,74.99
2018-03-28T09:30:11.896Z,74.59
2018-03-28T09:32:40.788Z,74.27
2018-03-28T09:35:09.884Z,74.46
2018-03-28T09:37:39.005Z,73.89
2018-03-28T09:40:08.075Z,74.39
2018-03-28T09:42:40.512Z,73.78
2018-03-28T09:45:10.583Z,74.23
2018-03-28T09:47:39.713Z,73.99
2018-03-28T09:50:10.405Z,73.54
2018-03-28T09:52:41.422Z,71.61
2018-03-28T09:55:14.846Z,72.10
2018-03-28T09:57:45.495Z,72.53
2018-03-28T10:00:22.867Z,72.62
2018-03-28T10:02:52.578Z,72.72
2018-03-28T10:05:21.757Z,75.10
2018-03-28T10:07:51.750Z,73.83
2018-03-28T10:10:20.782Z,72.79
2018-03-28T10:12:49.781Z,72.47
2018-03-28T10:15:20.520Z,72.08
2018-03-28T10:17:50.316Z,72.04
2018-03-28T10:20:19.321Z,71.53
2018-03-28T10:22:50.981Z,71.94
2018-03-28T10:25:20.180Z,71.74
2018-03-28T10:27:50.246Z,70.62
2018-03-28T10:30:19.275Z,69.95
2018-03-28T10:32:48.895Z,68.20
2018-03-28T10:35:18.687Z,68.49
2018-03-28T10:37:48.734Z,66.16
2018-03-28T10:40:18.441Z,66.78
2018-03-28T10:42:47.479Z,65.04
2018-03-28T10:45:18.128Z,66.69
2018-03-28T10:47:47.269Z,68.14
2018-03-28T10:50:16.260Z,67.25
2018-03-28T10:52:47.788Z,66.78
2018-03-28T10:55:17.827Z,65.80
2018-03-28T10:57:46.935Z,66.63
2018-03-28T11:00:17.594Z,67.36
2018-03-28T11:02:46.604Z,61.24
2018-03-28T11:05:16.521Z,59.77
2018-03-28T11:07:45.805Z,58.43
2018-03-28T11:10:14.866Z,57.93
2018-03-28T11:12:43.848Z,57.39
2018-03-28T11:15:18.832Z,57.70
2018-03-28T11:17:47.977Z,58.27
2018-03-28T11:20:18.712Z,56.66
2018-03-28T11:22:47.752Z,57.44
2018-03-28T11:25:17.075Z,58.01
2018-03-28T11:27:46.051Z,58.52
2018-03-28T11:30:16.678Z,61.00
2018-03-28T11:32:45.855Z,63.11
2018-03-28T11:35:14.865Z,63.75
2018-03-28T11:37:43.852Z,66.31
2018-03-28T11:40:12.888Z,66.56
2018-03-28T11:42:42.082Z,66.16
2018-03-28T11:45:11.216Z,66.00
2018-03-28T11:47:40.238Z,67.51
2018-03-28T11:50:11.774Z,67.62
2018-03-28T11:52:42.673Z,68.50
2018-03-28T11:55:11.912Z,67.24
2018-03-28T11:57:40.964Z,70.29
2018-03-28T12:00:11.610Z,69.62
2018-03-28T12:02:40.702Z,67.69
2018-03-28T12:05:09.757Z,69.13
2018-03-28T12:07:41.840Z,70.46
2018-03-28T12:10:11.055Z,71.30
2018-03-28T12:12:40.329Z,72.07
2018-03-28T12:15:10.444Z,71.64
2018-03-28T12:17:39.574Z,69.61
2018-03-28T12:20:08.982Z,71.91
2018-03-28T12:22:38.167Z,72.68
2018-03-28T12:25:08.079Z,71.86
2018-03-28T12:27:40.760Z,73.59
2018-03-28T12:30:09.675Z,74.00
2018-03-28T12:32:38.709Z,74.87
2018-03-28T12:35:07.724Z,74.74
2018-03-28T12:37:36.659Z,77.05
2018-03-28T12:40:05.667Z,78.63
2018-03-28T12:42:34.953Z,79.19
2018-03-28T12:45:03.949Z,78.18
2018-03-28T12:47:33.038Z,79.96
2018-03-28T12:50:02.903Z,80.04
2018-03-28T12:52:31.792Z,82.29
2018-03-28T12:55:00.781Z,83.17
2018-03-28T13:00:04.933Z,84.82
2018-03-28T13:02:35.006Z,84.53
2018-03-28T13:05:06.341Z,84.83
2018-03-28T13:07:37.006Z,84.64
2018-03-28T13:10:06.159Z,83.11
2018-03-28T13:12:36.216Z,83.54
2018-03-28T13:15:05.653Z,82.44
2018-03-28T13:17:35.366Z,81.66
2018-03-28T13:20:05.385Z,80.59
2018-03-28T13:22:35.245Z,79.89
2018-03-28T13:25:04.442Z,80.23
2018-03-28T13:27:35.236Z,80.65
2018-03-28T13:30:04.385Z,80.31
2018-03-28T13:32:33.364Z,80.58
2018-03-28T13:35:03.344Z,80.11
2018-03-28T13:37:32.339Z,80.73
2018-03-28T13:40:01.438Z,80.40
2018-03-28T13:42:32.985Z,82.11
2018-03-28T13:45:01.928Z,83.80
2018-03-28T13:47:30.940Z,85.25
2018-03-28T13:50:00.784Z,85.74
2018-03-28T13:52:29.675Z,85.11
2018-03-28T13:54:58.726Z,86.56
2018-03-28T13:57:28.526Z,84.54
2018-03-28T13:59:57.589Z,84.65
2018-03-28T14:02:26.409Z,85.92
2018-03-28T14:04:58.685Z,86.54
2018-03-28T14:07:27.841Z,87.65
2018-03-28T14:09:57.145Z,88.24
2018-03-28T14:12:27.120Z,90.31
2018-03-28T14:14:56.233Z,90.59
2018-03-28T14:17:25.242Z,90.96
2018-03-28T14:19:54.588Z,90.90
2018-03-28T14:22:24.490Z,91.18
2018-03-28T14:24:54.446Z,92.58
2018-03-28T14:27:24.253Z,93.16
2018-03-28T14:29:53.159Z,92.47
2018-03-28T14:32:22.180Z,92.44
2018-03-28T14:34:51.260Z,92.47
2018-03-28T14:37:20.208Z,93.75
2018-03-28T14:39:49.298Z,93.80
2018-03-28T14:42:18.363Z,94.28
2018-03-28T14:44:47.457Z,94.46
2018-03-28T14:47:17.473Z,94.35
2018-03-28T14:49:49.139Z,95.02
2018-03-28T14:52:18.266Z,94.76
2018-03-28T14:54:47.369Z,94.46
2018-03-28T14:59:52.796Z,95.61
2018-03-28T15:02:21.931Z,95.19
2018-03-28T15:04:51.863Z,94.44
2018-03-28T15:07:21.644Z,94.60
2018-03-28T15:09:50.584Z,94.75
2018-03-28T15:12:19.890Z,93.66
2018-03-28T15:14:49.457Z,92.48
2018-03-28T15:17:18.393Z,91.67
2018-03-28T15:19:49.231Z,91.14
2018-03-28T15:22:18.969Z,91.58
2018-03-28T15:24:48.117Z,91.64
2018-03-28T15:27:19.719Z,90.71
2018-03-28T15:29:48.930Z,90.57
2018-03-28T15:32:18.778Z,91.19
2018-03-28T15:34:47.862Z,90.65
2018-03-28T15:37:17.790Z,91.21
2018-03-28T15:39:46.924Z,91.69
2018-03-28T15:42:15.901Z,91.86
2018-03-28T15:44:44.960Z,92.07
2018-03-28T15:47:13.860Z,91.82
2018-03-28T15:49:44.442Z,91.70
2018-03-28T15:52:14.062Z,92.97
2018-03-28T15:54:44.076Z,94.23
2018-03-28T15:57:14.197Z,95.26
2018-03-28T15:59:43.401Z,94.69
2018-03-28T16:02:12.441Z,93.72
2018-03-28T16:04:43.285Z,93.16
2018-03-28T16:07:12.536Z,93.95
2018-03-28T16:09:41.930Z,93.64
2018-03-28T16:12:12.023Z,93.31
2018-03-28T16:14:42.028Z,92.75
2018-03-28T16:17:11.929Z,92.27
2018-03-28T16:19:41.835Z,92.46
2018-03-28T16:22:10.900Z,93.69
2018-03-28T16:24:39.922Z,93.58
2018-03-28T16:27:09.828Z,93.71
2018-03-28T16:29:42.050Z,93.46
2018-03-28T16:32:12.960Z,92.58
2018-03-28T16:34:42.617Z,93.36
2018-03-28T16:37:12.407Z,93.22
2018-03-28T16:39:43.222Z,92.55
2018-03-28T16:42:13.398Z,93.02
2018-03-28T16:44:43.456Z,93.02
2018-03-28T16:47:13.314Z,93.59
2018-03-28T16:49:42.412Z,93.69
2018-03-28T16:52:11.622Z,94.23
2018-03-28T16:54:41.690Z,94.28
2018-03-28T16:57:11.774Z,94.01
2018-03-28T16:59:40.930Z,93.67
2018-03-28T17:02:11.526Z,93.60
2018-03-28T17:04:40.685Z,93.66
2018-03-28T17:07:11.855Z,93.73
2018-03-28T17:09:41.161Z,93.60
2018-03-28T17:12:10.332Z,93.78
2018-03-28T17:14:39.369Z,93.29
2018-03-28T17:17:08.616Z,93.18
2018-03-28T17:19:37.460Z,92.64
2018-03-28T17:22:06.667Z,91.54
2018-03-28T17:24:35.975Z,91.12
2018-03-28T17:27:05.259Z,91.11
2018-03-28T17:29:34.214Z,92.14
2018-03-28T17:34:37.465Z,92.74
2018-03-28T17:37:08.314Z,92.86
2018-03-28T17:39:37.730Z,92.49
2018-03-28T17:42:07.315Z,92.65
2018-03-28T17:44:37.193Z,92.75
2018-03-28T17:47:07.174Z,93.18
2018-03-28T17:49:38.153Z,93.33
2018-03-28T17:52:08.060Z,92.85
2018-03-28T17:54:37.900Z,92.55
2018-03-28T17:57:07.786Z,92.34
2018-03-28T17:59:37.710Z,92.34
2018-03-28T18:02:07.870Z,92.37
2018-03-28T18:04:36.917Z,91.82
2018-03-28T18:07:06.161Z,91.58
2018-03-28T18:09:36.783Z,91.34
2018-03-28T18:12:06.160Z,91.49
2018-03-28T18:14:38.281Z,91.53
2018-03-28T18:17:07.426Z,92.26
2018-03-28T18:19:37.244Z,92.05
2018-03-28T18:22:06.335Z,92.22
2018-03-28T18:24:36.282Z,92.58
2018-03-28T18:27:05.500Z,92.65
2018-03-28T18:32:09.155Z,92.27
2018-03-28T18:34:38.403Z,92.47
2018-03-28T18:37:07.736Z,92.72
2018-03-28T18:39:39.506Z,92.18
2018-03-28T18:42:08.685Z,92.84
2018-03-28T18:44:37.867Z,93.69
2018-03-28T18:47:08.973Z,93.98
2018-03-28T18:49:38.125Z,94.22
2018-03-28T18:52:07.328Z,93.88
2018-03-28T18:54:36.581Z,94.22
2018-03-28T18:57:06.832Z,94.26
2018-03-28T18:59:36.254Z,93.50
2018-03-28T19:02:05.557Z,93.40
2018-03-28T19:04:35.443Z,93.36
2018-03-28T19:07:04.658Z,93.97
2018-03-28T19:09:35.550Z,94.44
2018-03-28T19:12:04.990Z,93.59
2018-03-28T19:14:34.954Z,93.01
2018-03-28T19:17:03.955Z,93.01
2018-03-28T19:19:33.224Z,92.66
2018-03-28T19:22:02.645Z,92.11
2018-03-28T19:24:31.861Z,91.41
2018-03-28T19:27:00.959Z,92.22
2018-03-28T19:29:30.959Z,92.42
2018-03-28T19:32:00.821Z,91.78
2018-03-28T19:34:30.698Z,91.76
2018-03-28T19:36:59.903Z,92.09
2018-03-28T19:42:02.588Z,92.08
2018-03-28T19:44:31.654Z,92.38
2018-03-28T19:47:00.851Z,93.39
2018-03-28T19:49:30.057Z,93.67
2018-03-28T19:51:59.149Z,93.40
2018-03-28T19:54:28.567Z,93.39
2018-03-28T19:56:57.688Z,93.45
2018-03-28T19:59:28.794Z,93.11
2018-03-28T20:01:59.599Z,92.77
2018-03-28T20:04:28.726Z,92.20
2018-03-28T20:06:58.675Z,91.82
2018-03-28T20:09:28.503Z,91.61
2018-03-28T20:11:57.546Z,90.77
2018-03-28T20:14:27.623Z,92.28
2018-03-28T20:16:57.550Z,91.74
2018-03-28T20:19:26.583Z,92.42
2018-03-28T20:21:56.871Z,93.13
2018-03-28T20:24:26.779Z,93.39
2018-03-28T20:26:56.145Z,92.93
2018-03-28T20:29:25.318Z,93.60
2018-03-28T20:31:57.745Z,93.70
2018-03-28T20:34:26.684Z,93.57
2018-03-28T20:36:55.755Z,93.74
2018-03-28T20:39:24.985Z,93.12
2018-03-28T20:41:54.076Z,93.73
2018-03-28T20:44:23.172Z,93.64
2018-03-28T20:46:54.933Z,93.91
2018-03-28T20:49:24.027Z,94.35
2018-03-28T20:51:53.024Z,94.22
2018-03-28T20:54:23.548Z,94.27
2018-03-28T20:56:53.028Z,93.89
2018-03-28T20:59:23.166Z,94.31
2018-03-28T21:01:53.568Z,94.65
2018-03-28T21:04:23.228Z,94.27
2018-03-28T21:06:52.307Z,94.64
2018-03-28T21:09:21.350Z,95.05
2018-03-28T21:11:50.298Z,95.40
2018-03-28T21:14:20.362Z,95.78
2018-03-28T21:16:50.298Z,95.38
2018-03-28T21:19:19.431Z,95.90
2018-03-28T21:21:48.747Z,96.51
2018-03-28T21:24:19.200Z,96.60
2018-03-28T21:26:48.157Z,96.78
2018-03-28T21:29:17.251Z,96.51
2018-03-28T21:31:46.867Z,95.89
2018-03-28T21:34:16.700Z,95.52
2018-03-28T21:36:45.771Z,95.27
2018-03-28T21:39:15.052Z,94.77
2018-03-28T21:41:44.168Z,94.47
2018-03-28T21:44:13.050Z,93.57
2018-03-28T21:46:42.135Z,92.65
2018-03-28T21:49:12.127Z,92.27
2018-03-28T21:51:41.271Z,92.37
2018-03-28T21:54:10.504Z,91.95
2018-03-28T21:56:39.468Z,90.26
2018-03-28T21:59:08.505Z,89.45
2018-03-28T22:01:37.586Z,88.84
2018-03-28T22:04:06.653Z,88.38
2018-03-28T22:06:36.651Z,89.25
2018-03-28T22:09:07.812Z,88.32
2018-03-28T22:11:36.957Z,87.48
2018-03-28T22:14:06.565Z,87.48
2018-03-28T22:16:36.646Z,87.68
2018-03-28T22:19:05.595Z,87.60
2018-03-28T22:21:39.241Z,88.45
2018-03-28T22:24:08.136Z,88.72
2018-03-28T22:26:38.205Z,88.57
2018-03-28T22:29:09.150Z,88.92
2018-03-28T22:31:38.251Z,88.11
2018-03-28T22:34:07.308Z,88.37
2018-03-28T22:36:37.258Z,87.69
2018-03-28T22:39:07.678Z,88.06
2018-03-28T22:41:36.861Z,87.61
2018-03-28T22:44:06.644Z,86.37
2018-03-28T22:46:35.713Z,85.69
2018-03-28T22:49:04.776Z,85.37
2018-03-28T22:51:33.822Z,85.08
2018-03-28T22:54:03.730Z,85.18
2018-03-28T22:56:32.913Z,84.27
2018-03-28T22:59:02.088Z,84.00
2018-03-28T23:01:31.091Z,84.01
2018-03-28T23:04:00.790Z,84.25
2018-03-28T23:06:30.024Z,84.73
2018-03-28T23:08:59.905Z,84.12
2018-03-28T23:11:28.930Z,84.47
2018-03-28T23:16:33.733Z,85.14
2018-03-28T23:19:04.519Z,84.97
2018-03-28T23:21:34.583Z,85.62
2018-03-28T23:24:03.905Z,85.89
2018-03-28T23:26:32.900Z,85.55
2018-03-28T23:29:01.912Z,86.23
2018-03-28T23:31:31.023Z,87.05
2018-03-28T23:34:01.167Z,86.70
2018-03-28T23:36:32.070Z,86.87
2018-03-28T23:39:01.105Z,87.41
2018-03-28T23:41:31.008Z,87.62
2018-03-28T23:44:00.234Z,88.35
2018-03-28T23:46:29.252Z,87.56
2018-03-28T23:48:59.168Z,87.54
2018-03-28T23:51:28.191Z,87.39
2018-03-28T23:53:57.261Z,87.99
2018-03-28T23:56:26.453Z,87.53
2018-03-28T23:58:57.048Z,86.98
